Winnipeg, Manitoba

1:50 PM CDT on July 27, 2016 (GMT -0500)
Winnipeg International | | Change Station

Elev 784 ft 49.90 °N, 97.23 °W | Updated 50 minutes ago

Mostly Cloudy
Mostly Cloudy
70 °F
Feels Like 70 °F
N
17
Wind Variable Wind from North
Gusts 23 mph

Today
High -- | Low -- °F
--% Chance of Precip.
Yesterday
High -- | Low -- °F
Precip. -- in
Pressure 30.14 in
Visibility 15.0 miles
Clouds Mostly Cloudy 4000 ft
Dew Point 54 °F
Humidity 56%
Rainfall 0.00 in
Snow Depth Not available.
5:52 AM 9:17 PM
Last Quarter, 40% visible
METAR CYWG 271800Z 01015G20KT 15SM BKN040 21/12 A3013 RMK CU6 SLP207 DENSITY ALT 1400FT
Pressure 30.14 in
Visibility 15.0 miles
Clouds Mostly Cloudy 4000 ft
Dew Point 54 °F
Humidity 56%
Rainfall 0.00 in
Snow Depth Not available.
5:52 AM 9:17 PM
Last Quarter, 40% visible
METAR CYWG 271800Z 01015G20KT 15SM BKN040 21/12 A3013 RMK CU6 SLP207 DENSITY ALT 1400FT

10-Day Weather Forecast

Almanac

Astronomy

Jul. 27, 2016 Rise Set
Actual Time
Civil Twilight
Nautical Twilight
Astronomical Twilight
Moon
Length of Visible Light
Length of Day
Tomorrow will be .
, % of the Moon is Illuminated

Today's Extremes

Country Highs Country Lows

Community

WunderPhotos

Upload Photos

1,927,897 photos uploaded!

WunderBlog® & News

Nearby

Air Quality

  Air Quality AQ Index Pollutant
Not available.

Snow Depth

Station Depth Elevation

Earthquake Activity

City Distance Mag. Time & Date
Minimum magnitude displayed is 2.5.

Coastal Water Temperatures

Place Temperature

Stations

Nearby Weather Stations

Station Location Temp. Windchill Dew Point Humidity Wind Precip. Elev Updated Type
                   

Watches & Warnings

There are currently no watches in effect.